sensor_id;sensor_type;location;lat;lon;timestamp;P1;durP1;ratioP1;P2;durP2;ratioP2
19209;SDS011;9738;51.654;14.238;2022-08-03T00:01:58;1.13;;;1.07;;
19209;SDS011;9738;51.654;14.238;2022-08-03T00:04:24;1.57;;;1.17;;
19209;SDS011;9738;51.654;14.238;2022-08-03T00:06:50;1.67;;;1.47;;
19209;SDS011;9738;51.654;14.238;2022-08-03T00:09:16;1.30;;;1.20;;
19209;SDS011;9738;51.654;14.238;2022-08-03T00:11:42;1.50;;;1.40;;
19209;SDS011;9738;51.654;14.238;2022-08-03T00:14:08;1.30;;;1.20;;
19209;SDS011;9738;51.654;14.238;2022-08-03T00:16:33;2.70;;;1.27;;
19209;SDS011;9738;51.654;14.238;2022-08-03T00:19:00;1.30;;;1.20;;
19209;SDS011;9738;51.654;14.238;2022-08-03T00:21:27;1.60;;;1.50;;
19209;SDS011;9738;51.654;14.238;2022-08-03T00:23:53;1.83;;;1.73;;
19209;SDS011;9738;51.654;14.238;2022-08-03T00:26:19;1.53;;;1.43;;
19209;SDS011;9738;51.654;14.238;2022-08-03T00:28:45;1.50;;;1.30;;
19209;SDS011;9738;51.654;14.238;2022-08-03T00:31:11;1.30;;;1.20;;
19209;SDS011;9738;51.654;14.238;2022-08-03T00:33:38;1.40;;;1.30;;
19209;SDS011;9738;51.654;14.238;2022-08-03T00:36:03;2.20;;;1.47;;
19209;SDS011;9738;51.654;14.238;2022-08-03T00:38:29;1.77;;;1.30;;
19209;SDS011;9738;51.654;14.238;2022-08-03T00:40:55;1.50;;;1.40;;
19209;SDS011;9738;51.654;14.238;2022-08-03T00:43:23;1.27;;;1.17;;
19209;SDS011;9738;51.654;14.238;2022-08-03T00:45:51;2.03;;;1.40;;
19209;SDS011;9738;51.654;14.238;2022-08-03T00:48:18;1.37;;;1.27;;
19209;SDS011;9738;51.654;14.238;2022-08-03T00:50:43;1.67;;;1.10;;
19209;SDS011;9738;51.654;14.238;2022-08-03T00:53:10;1.40;;;1.30;;
19209;SDS011;9738;51.654;14.238;2022-08-03T00:55:40;1.47;;;1.37;;
19209;SDS011;9738;51.654;14.238;2022-08-03T00:58:06;1.60;;;1.40;;
19209;SDS011;9738;51.654;14.238;2022-08-03T01:00:33;1.37;;;1.27;;
19209;SDS011;9738;51.654;14.238;2022-08-03T01:03:07;1.57;;;1.37;;
19209;SDS011;9738;51.654;14.238;2022-08-03T01:05:37;1.20;;;1.10;;
19209;SDS011;9738;51.654;14.238;2022-08-03T01:08:21;2.17;;;1.40;;
19209;SDS011;9738;51.654;14.238;2022-08-03T01:13:48;1.47;;;1.37;;
19209;SDS011;9738;51.654;14.238;2022-08-03T01:16:32;1.57;;;1.20;;
19209;SDS011;9738;51.654;14.238;2022-08-03T01:19:29;1.60;;;1.50;;
19209;SDS011;9738;51.654;14.238;2022-08-03T01:22:09;1.27;;;1.17;;
19209;SDS011;9738;51.654;14.238;2022-08-03T01:24:56;1.17;;;1.07;;
19209;SDS011;9738;51.654;14.238;2022-08-03T01:30:11;1.37;;;1.27;;
19209;SDS011;9738;51.654;14.238;2022-08-03T01:32:39;1.70;;;1.60;;
19209;SDS011;9738;51.654;14.238;2022-08-03T01:35:27;1.57;;;1.47;;
19209;SDS011;9738;51.654;14.238;2022-08-03T01:37:57;1.80;;;1.70;;
19209;SDS011;9738;51.654;14.238;2022-08-03T01:40:27;1.70;;;1.60;;
19209;SDS011;9738;51.654;14.238;2022-08-03T01:42:56;1.30;;;1.20;;
19209;SDS011;9738;51.654;14.238;2022-08-03T01:45:24;1.97;;;1.70;;
19209;SDS011;9738;51.654;14.238;2022-08-03T01:47:52;1.60;;;1.50;;
19209;SDS011;9738;51.654;14.238;2022-08-03T01:50:22;1.40;;;1.30;;
19209;SDS011;9738;51.654;14.238;2022-08-03T01:52:52;1.90;;;1.63;;
19209;SDS011;9738;51.654;14.238;2022-08-03T01:55:20;1.73;;;1.33;;
19209;SDS011;9738;51.654;14.238;2022-08-03T01:57:48;1.53;;;1.27;;
19209;SDS011;9738;51.654;14.238;2022-08-03T02:00:17;1.47;;;1.37;;
19209;SDS011;9738;51.654;14.238;2022-08-03T02:02:43;1.67;;;1.57;;
19209;SDS011;9738;51.654;14.238;2022-08-03T02:05:13;1.10;;;1.10;;
19209;SDS011;9738;51.654;14.238;2022-08-03T02:07:41;1.30;;;1.20;;
19209;SDS011;9738;51.654;14.238;2022-08-03T02:10:10;1.77;;;1.60;;
19209;SDS011;9738;51.654;14.238;2022-08-03T02:12:38;3.07;;;1.87;;
19209;SDS011;9738;51.654;14.238;2022-08-03T02:15:05;2.73;;;1.93;;
19209;SDS011;9738;51.654;14.238;2022-08-03T02:17:31;1.63;;;1.50;;
19209;SDS011;9738;51.654;14.238;2022-08-03T02:19:59;1.80;;;1.70;;
19209;SDS011;9738;51.654;14.238;2022-08-03T02:22:27;1.83;;;1.60;;
19209;SDS011;9738;51.654;14.238;2022-08-03T02:24:55;1.77;;;1.67;;
19209;SDS011;9738;51.654;14.238;2022-08-03T02:27:21;1.87;;;1.60;;
19209;SDS011;9738;51.654;14.238;2022-08-03T02:29:54;3.33;;;1.90;;
19209;SDS011;9738;51.654;14.238;2022-08-03T02:32:28;2.33;;;2.13;;
19209;SDS011;9738;51.654;14.238;2022-08-03T02:34:57;1.83;;;1.73;;
19209;SDS011;9738;51.654;14.238;2022-08-03T02:37:26;2.80;;;2.47;;
19209;SDS011;9738;51.654;14.238;2022-08-03T02:39:57;2.00;;;1.80;;
19209;SDS011;9738;51.654;14.238;2022-08-03T02:42:27;2.97;;;2.10;;
19209;SDS011;9738;51.654;14.238;2022-08-03T02:44:58;2.20;;;2.00;;
19209;SDS011;9738;51.654;14.238;2022-08-03T02:47:26;2.33;;;2.10;;
19209;SDS011;9738;51.654;14.238;2022-08-03T02:49:54;2.43;;;1.90;;
19209;SDS011;9738;51.654;14.238;2022-08-03T02:52:24;2.73;;;2.33;;
19209;SDS011;9738;51.654;14.238;2022-08-03T02:54:55;1.90;;;1.80;;
19209;SDS011;9738;51.654;14.238;2022-08-03T02:57:23;2.03;;;1.60;;
19209;SDS011;9738;51.654;14.238;2022-08-03T02:59:52;1.80;;;1.70;;
19209;SDS011;9738;51.654;14.238;2022-08-03T03:02:19;1.90;;;1.80;;
19209;SDS011;9738;51.654;14.238;2022-08-03T03:04:46;2.67;;;2.00;;
19209;SDS011;9738;51.654;14.238;2022-08-03T03:07:15;1.80;;;1.70;;
19209;SDS011;9738;51.654;14.238;2022-08-03T03:09:42;2.10;;;1.90;;
19209;SDS011;9738;51.654;14.238;2022-08-03T03:12:09;2.37;;;1.77;;
19209;SDS011;9738;51.654;14.238;2022-08-03T03:14:37;2.03;;;1.80;;
19209;SDS011;9738;51.654;14.238;2022-08-03T03:17:08;2.43;;;2.07;;
19209;SDS011;9738;51.654;14.238;2022-08-03T03:19:37;2.07;;;1.87;;
19209;SDS011;9738;51.654;14.238;2022-08-03T03:22:04;2.53;;;2.13;;
19209;SDS011;9738;51.654;14.238;2022-08-03T03:24:31;1.93;;;1.77;;
19209;SDS011;9738;51.654;14.238;2022-08-03T03:27:00;2.03;;;1.83;;
19209;SDS011;9738;51.654;14.238;2022-08-03T03:29:27;1.87;;;1.77;;
19209;SDS011;9738;51.654;14.238;2022-08-03T03:31:53;2.40;;;2.20;;
19209;SDS011;9738;51.654;14.238;2022-08-03T03:34:20;1.80;;;1.70;;
19209;SDS011;9738;51.654;14.238;2022-08-03T03:36:46;2.30;;;2.10;;
19209;SDS011;9738;51.654;14.238;2022-08-03T03:39:12;1.97;;;1.73;;
19209;SDS011;9738;51.654;14.238;2022-08-03T03:41:38;2.13;;;1.93;;
19209;SDS011;9738;51.654;14.238;2022-08-03T03:44:04;3.27;;;2.20;;
19209;SDS011;9738;51.654;14.238;2022-08-03T03:46:30;2.60;;;2.10;;
19209;SDS011;9738;51.654;14.238;2022-08-03T03:48:57;2.40;;;2.20;;
19209;SDS011;9738;51.654;14.238;2022-08-03T03:51:23;2.30;;;2.10;;
19209;SDS011;9738;51.654;14.238;2022-08-03T03:53:53;3.23;;;2.67;;
19209;SDS011;9738;51.654;14.238;2022-08-03T03:56:23;2.47;;;2.27;;
19209;SDS011;9738;51.654;14.238;2022-08-03T03:58:49;2.40;;;2.20;;
19209;SDS011;9738;51.654;14.238;2022-08-03T04:01:15;2.83;;;2.30;;
19209;SDS011;9738;51.654;14.238;2022-08-03T04:03:41;2.80;;;2.50;;
19209;SDS011;9738;51.654;14.238;2022-08-03T04:06:07;2.40;;;2.20;;
19209;SDS011;9738;51.654;14.238;2022-08-03T04:08:52;2.47;;;2.27;;
19209;SDS011;9738;51.654;14.238;2022-08-03T04:11:37;4.00;;;2.27;;
19209;SDS011;9738;51.654;14.238;2022-08-03T04:14:23;4.07;;;2.23;;
19209;SDS011;9738;51.654;14.238;2022-08-03T04:16:58;2.40;;;2.20;;
19209;SDS011;9738;51.654;14.238;2022-08-03T04:22:10;2.63;;;2.27;;
19209;SDS011;9738;51.654;14.238;2022-08-03T04:24:39;2.47;;;2.27;;
19209;SDS011;9738;51.654;14.238;2022-08-03T04:27:10;2.67;;;2.43;;
19209;SDS011;9738;51.654;14.238;2022-08-03T04:29:40;4.53;;;2.27;;
19209;SDS011;9738;51.654;14.238;2022-08-03T04:32:09;2.70;;;2.50;;
19209;SDS011;9738;51.654;14.238;2022-08-03T04:34:36;5.63;;;2.40;;
19209;SDS011;9738;51.654;14.238;2022-08-03T04:37:04;2.50;;;2.30;;
19209;SDS011;9738;51.654;14.238;2022-08-03T04:39:43;3.83;;;2.20;;
19209;SDS011;9738;51.654;14.238;2022-08-03T04:42:14;4.23;;;2.17;;
19209;SDS011;9738;51.654;14.238;2022-08-03T04:44:40;3.03;;;2.67;;
19209;SDS011;9738;51.654;14.238;2022-08-03T04:47:09;4.23;;;2.00;;
19209;SDS011;9738;51.654;14.238;2022-08-03T04:49:36;2.53;;;2.33;;
19209;SDS011;9738;51.654;14.238;2022-08-03T04:52:03;2.83;;;2.63;;
19209;SDS011;9738;51.654;14.238;2022-08-03T04:54:29;3.33;;;2.50;;
19209;SDS011;9738;51.654;14.238;2022-08-03T04:56:55;2.20;;;2.00;;
19209;SDS011;9738;51.654;14.238;2022-08-03T04:59:21;2.30;;;2.10;;
19209;SDS011;9738;51.654;14.238;2022-08-03T05:01:47;3.27;;;2.37;;
19209;SDS011;9738;51.654;14.238;2022-08-03T05:04:13;2.40;;;2.10;;
19209;SDS011;9738;51.654;14.238;2022-08-03T05:06:39;2.60;;;2.40;;
19209;SDS011;9738;51.654;14.238;2022-08-03T05:09:05;2.73;;;2.53;;
19209;SDS011;9738;51.654;14.238;2022-08-03T05:11:31;2.90;;;2.53;;
19209;SDS011;9738;51.654;14.238;2022-08-03T05:13:56;3.70;;;2.80;;
19209;SDS011;9738;51.654;14.238;2022-08-03T05:16:22;2.30;;;2.10;;
19209;SDS011;9738;51.654;14.238;2022-08-03T05:18:50;2.70;;;2.50;;
19209;SDS011;9738;51.654;14.238;2022-08-03T05:21:16;2.33;;;2.13;;
19209;SDS011;9738;51.654;14.238;2022-08-03T05:23:43;3.20;;;2.73;;
19209;SDS011;9738;51.654;14.238;2022-08-03T05:26:09;3.20;;;2.53;;
19209;SDS011;9738;51.654;14.238;2022-08-03T05:28:36;4.10;;;3.30;;
19209;SDS011;9738;51.654;14.238;2022-08-03T05:31:02;3.00;;;2.70;;
19209;SDS011;9738;51.654;14.238;2022-08-03T05:33:29;3.17;;;2.67;;
19209;SDS011;9738;51.654;14.238;2022-08-03T05:35:54;3.37;;;2.70;;
19209;SDS011;9738;51.654;14.238;2022-08-03T05:38:20;3.03;;;2.70;;
19209;SDS011;9738;51.654;14.238;2022-08-03T05:40:46;3.90;;;3.10;;
19209;SDS011;9738;51.654;14.238;2022-08-03T05:43:12;3.13;;;2.50;;
19209;SDS011;9738;51.654;14.238;2022-08-03T05:45:38;3.10;;;2.80;;
19209;SDS011;9738;51.654;14.238;2022-08-03T05:48:04;2.63;;;2.40;;
19209;SDS011;9738;51.654;14.238;2022-08-03T05:50:30;3.07;;;2.73;;
19209;SDS011;9738;51.654;14.238;2022-08-03T05:52:56;2.60;;;2.00;;
19209;SDS011;9738;51.654;14.238;2022-08-03T05:55:22;2.03;;;1.87;;
19209;SDS011;9738;51.654;14.238;2022-08-03T05:57:48;2.30;;;2.10;;
19209;SDS011;9738;51.654;14.238;2022-08-03T06:00:14;2.20;;;2.00;;
19209;SDS011;9738;51.654;14.238;2022-08-03T06:02:41;2.70;;;2.23;;
19209;SDS011;9738;51.654;14.238;2022-08-03T06:05:07;2.70;;;2.10;;
19209;SDS011;9738;51.654;14.238;2022-08-03T06:07:33;4.40;;;2.40;;
19209;SDS011;9738;51.654;14.238;2022-08-03T06:10:00;2.70;;;2.03;;
19209;SDS011;9738;51.654;14.238;2022-08-03T06:12:28;2.77;;;2.30;;
19209;SDS011;9738;51.654;14.238;2022-08-03T06:14:53;2.10;;;1.90;;
19209;SDS011;9738;51.654;14.238;2022-08-03T06:17:20;2.40;;;2.20;;
19209;SDS011;9738;51.654;14.238;2022-08-03T06:19:45;1.63;;;1.53;;
19209;SDS011;9738;51.654;14.238;2022-08-03T06:22:11;2.43;;;2.13;;
19209;SDS011;9738;51.654;14.238;2022-08-03T06:24:37;2.30;;;2.07;;
19209;SDS011;9738;51.654;14.238;2022-08-03T06:27:03;3.77;;;2.00;;
19209;SDS011;9738;51.654;14.238;2022-08-03T06:29:29;1.87;;;1.77;;
19209;SDS011;9738;51.654;14.238;2022-08-03T06:31:55;2.20;;;1.80;;
19209;SDS011;9738;51.654;14.238;2022-08-03T06:34:21;2.23;;;2.03;;
19209;SDS011;9738;51.654;14.238;2022-08-03T06:36:47;2.53;;;2.00;;
19209;SDS011;9738;51.654;14.238;2022-08-03T06:39:16;1.60;;;1.50;;
19209;SDS011;9738;51.654;14.238;2022-08-03T06:41:42;1.70;;;1.50;;
19209;SDS011;9738;51.654;14.238;2022-08-03T06:44:08;2.33;;;1.90;;
19209;SDS011;9738;51.654;14.238;2022-08-03T06:46:34;2.07;;;1.87;;
19209;SDS011;9738;51.654;14.238;2022-08-03T06:49:00;1.50;;;1.40;;
19209;SDS011;9738;51.654;14.238;2022-08-03T06:51:26;1.70;;;1.40;;
19209;SDS011;9738;51.654;14.238;2022-08-03T06:53:52;1.97;;;1.60;;
19209;SDS011;9738;51.654;14.238;2022-08-03T06:56:18;1.87;;;1.77;;
19209;SDS011;9738;51.654;14.238;2022-08-03T06:58:45;3.30;;;1.98;;
19209;SDS011;9738;51.654;14.238;2022-08-03T07:01:12;1.77;;;1.65;;
19209;SDS011;9738;51.654;14.238;2022-08-03T07:03:38;1.52;;;1.42;;
19209;SDS011;9738;51.654;14.238;2022-08-03T07:06:05;1.33;;;1.23;;
19209;SDS011;9738;51.654;14.238;2022-08-03T07:08:31;1.20;;;1.10;;
19209;SDS011;9738;51.654;14.238;2022-08-03T07:10:57;1.25;;;1.10;;
19209;SDS011;9738;51.654;14.238;2022-08-03T07:13:23;1.50;;;1.30;;
19209;SDS011;9738;51.654;14.238;2022-08-03T07:15:49;2.30;;;1.80;;
19209;SDS011;9738;51.654;14.238;2022-08-03T07:18:15;1.40;;;1.30;;
19209;SDS011;9738;51.654;14.238;2022-08-03T07:20:41;1.60;;;1.50;;
19209;SDS011;9738;51.654;14.238;2022-08-03T07:23:07;1.50;;;1.40;;
19209;SDS011;9738;51.654;14.238;2022-08-03T07:25:34;1.38;;;1.27;;
19209;SDS011;9738;51.654;14.238;2022-08-03T07:28:00;1.33;;;1.23;;
19209;SDS011;9738;51.654;14.238;2022-08-03T07:30:26;1.95;;;1.27;;
19209;SDS011;9738;51.654;14.238;2022-08-03T07:32:52;1.95;;;1.75;;
19209;SDS011;9738;51.654;14.238;2022-08-03T07:35:18;2.42;;;1.92;;
19209;SDS011;9738;51.654;14.238;2022-08-03T07:37:44;1.40;;;1.30;;
19209;SDS011;9738;51.654;14.238;2022-08-03T07:40:10;1.45;;;1.33;;
19209;SDS011;9738;51.654;14.238;2022-08-03T07:42:35;1.88;;;1.77;;
19209;SDS011;9738;51.654;14.238;2022-08-03T07:45:02;1.40;;;1.30;;
19209;SDS011;9738;51.654;14.238;2022-08-03T07:47:29;1.50;;;1.40;;
19209;SDS011;9738;51.654;14.238;2022-08-03T07:49:55;2.10;;;1.52;;
19209;SDS011;9738;51.654;14.238;2022-08-03T07:52:22;1.42;;;1.33;;
19209;SDS011;9738;51.654;14.238;2022-08-03T07:55:07;1.92;;;1.58;;
19209;SDS011;9738;51.654;14.238;2022-08-03T07:57:34;1.50;;;1.40;;
19209;SDS011;9738;51.654;14.238;2022-08-03T07:59:59;1.70;;;1.60;;
19209;SDS011;9738;51.654;14.238;2022-08-03T08:02:25;1.60;;;1.50;;
19209;SDS011;9738;51.654;14.238;2022-08-03T08:04:52;2.08;;;1.33;;
19209;SDS011;9738;51.654;14.238;2022-08-03T08:07:17;2.03;;;1.58;;
19209;SDS011;9738;51.654;14.238;2022-08-03T08:09:43;2.33;;;1.73;;
19209;SDS011;9738;51.654;14.238;2022-08-03T08:12:10;1.35;;;1.25;;
19209;SDS011;9738;51.654;14.238;2022-08-03T08:14:37;1.58;;;1.48;;
19209;SDS011;9738;51.654;14.238;2022-08-03T08:17:02;1.33;;;1.23;;
19209;SDS011;9738;51.654;14.238;2022-08-03T08:19:29;4.30;;;1.70;;
19209;SDS011;9738;51.654;14.238;2022-08-03T08:21:55;1.60;;;1.50;;
19209;SDS011;9738;51.654;14.238;2022-08-03T08:24:21;1.60;;;1.50;;
19209;SDS011;9738;51.654;14.238;2022-08-03T08:26:47;3.67;;;1.50;;
19209;SDS011;9738;51.654;14.238;2022-08-03T08:29:13;1.45;;;1.35;;
19209;SDS011;9738;51.654;14.238;2022-08-03T08:31:38;1.20;;;1.10;;
19209;SDS011;9738;51.654;14.238;2022-08-03T08:34:05;2.25;;;1.45;;
19209;SDS011;9738;51.654;14.238;2022-08-03T08:36:32;1.95;;;1.40;;
19209;SDS011;9738;51.654;14.238;2022-08-03T08:38:58;1.50;;;1.40;;
19209;SDS011;9738;51.654;14.238;2022-08-03T08:41:25;1.40;;;1.30;;
19209;SDS011;9738;51.654;14.238;2022-08-03T08:43:52;1.45;;;1.33;;
19209;SDS011;9738;51.654;14.238;2022-08-03T08:46:18;1.55;;;1.45;;
19209;SDS011;9738;51.654;14.238;2022-08-03T08:48:45;2.00;;;1.42;;
19209;SDS011;9738;51.654;14.238;2022-08-03T08:51:15;2.05;;;1.80;;
19209;SDS011;9738;51.654;14.238;2022-08-03T08:53:42;3.03;;;1.42;;
19209;SDS011;9738;51.654;14.238;2022-08-03T08:56:14;1.58;;;1.48;;
19209;SDS011;9738;51.654;14.238;2022-08-03T08:58:50;7.65;;;1.50;;
19209;SDS011;9738;51.654;14.238;2022-08-03T09:01:18;2.38;;;2.00;;
19209;SDS011;9738;51.654;14.238;2022-08-03T09:03:45;1.92;;;1.40;;
19209;SDS011;9738;51.654;14.238;2022-08-03T09:06:11;1.30;;;1.20;;
19209;SDS011;9738;51.654;14.238;2022-08-03T09:08:37;1.52;;;1.30;;
19209;SDS011;9738;51.654;14.238;2022-08-03T09:11:03;1.45;;;1.35;;
19209;SDS011;9738;51.654;14.238;2022-08-03T09:13:29;1.50;;;1.40;;
19209;SDS011;9738;51.654;14.238;2022-08-03T09:18:38;4.15;;;1.50;;
19209;SDS011;9738;51.654;14.238;2022-08-03T09:21:12;1.50;;;1.40;;
19209;SDS011;9738;51.654;14.238;2022-08-03T09:23:47;1.70;;;1.60;;
19209;SDS011;9738;51.654;14.238;2022-08-03T09:28:53;2.35;;;1.23;;
19209;SDS011;9738;51.654;14.238;2022-08-03T09:31:34;1.40;;;1.30;;
19209;SDS011;9738;51.654;14.238;2022-08-03T09:34:07;1.50;;;1.38;;
19209;SDS011;9738;51.654;14.238;2022-08-03T09:36:42;1.50;;;1.40;;
19209;SDS011;9738;51.654;14.238;2022-08-03T09:39:10;1.35;;;1.25;;
19209;SDS011;9738;51.654;14.238;2022-08-03T09:41:43;1.50;;;1.40;;
19209;SDS011;9738;51.654;14.238;2022-08-03T09:44:13;3.53;;;1.48;;
19209;SDS011;9738;51.654;14.238;2022-08-03T09:46:50;1.35;;;1.25;;
19209;SDS011;9738;51.654;14.238;2022-08-03T09:49:18;1.00;;;1.00;;
19209;SDS011;9738;51.654;14.238;2022-08-03T09:51:44;1.30;;;1.20;;
19209;SDS011;9738;51.654;14.238;2022-08-03T09:54:10;1.55;;;1.30;;
19209;SDS011;9738;51.654;14.238;2022-08-03T09:56:39;1.20;;;1.10;;
19209;SDS011;9738;51.654;14.238;2022-08-03T09:59:10;1.58;;;1.40;;
19209;SDS011;9738;51.654;14.238;2022-08-03T10:01:36;1.40;;;1.30;;
19209;SDS011;9738;51.654;14.238;2022-08-03T10:04:10;1.33;;;1.23;;
19209;SDS011;9738;51.654;14.238;2022-08-03T10:06:45;1.52;;;1.20;;
19209;SDS011;9738;51.654;14.238;2022-08-03T10:09:25;2.25;;;1.30;;
19209;SDS011;9738;51.654;14.238;2022-08-03T10:11:52;1.30;;;1.20;;
19209;SDS011;9738;51.654;14.238;2022-08-03T10:14:18;1.30;;;1.20;;
19209;SDS011;9738;51.654;14.238;2022-08-03T10:16:45;1.40;;;1.30;;
19209;SDS011;9738;51.654;14.238;2022-08-03T10:19:12;1.38;;;1.27;;
19209;SDS011;9738;51.654;14.238;2022-08-03T10:21:40;1.30;;;1.20;;
19209;SDS011;9738;51.654;14.238;2022-08-03T10:24:11;3.60;;;1.33;;
19209;SDS011;9738;51.654;14.238;2022-08-03T10:26:41;1.30;;;1.20;;
19209;SDS011;9738;51.654;14.238;2022-08-03T10:29:11;2.08;;;1.50;;
19209;SDS011;9738;51.654;14.238;2022-08-03T10:31:40;1.77;;;1.40;;
19209;SDS011;9738;51.654;14.238;2022-08-03T10:34:16;1.35;;;1.20;;
19209;SDS011;9738;51.654;14.238;2022-08-03T10:36:48;1.42;;;1.27;;
19209;SDS011;9738;51.654;14.238;2022-08-03T10:39:18;1.58;;;1.35;;
19209;SDS011;9738;51.654;14.238;2022-08-03T10:41:48;1.35;;;1.25;;
19209;SDS011;9738;51.654;14.238;2022-08-03T10:44:18;1.20;;;1.10;;
19209;SDS011;9738;51.654;14.238;2022-08-03T10:46:48;1.27;;;1.17;;
19209;SDS011;9738;51.654;14.238;2022-08-03T10:49:15;1.38;;;1.27;;
19209;SDS011;9738;51.654;14.238;2022-08-03T10:51:43;1.98;;;1.30;;
19209;SDS011;9738;51.654;14.238;2022-08-03T10:57:01;1.20;;;1.10;;
19209;SDS011;9738;51.654;14.238;2022-08-03T11:02:13;1.80;;;1.55;;
19209;SDS011;9738;51.654;14.238;2022-08-03T11:04:40;1.27;;;1.17;;
19209;SDS011;9738;51.654;14.238;2022-08-03T11:09:49;1.30;;;1.20;;
19209;SDS011;9738;51.654;14.238;2022-08-03T11:12:23;1.13;;;0.90;;
19209;SDS011;9738;51.654;14.238;2022-08-03T11:14:50;1.70;;;1.52;;
19209;SDS011;9738;51.654;14.238;2022-08-03T11:17:18;1.38;;;1.27;;
19209;SDS011;9738;51.654;14.238;2022-08-03T11:19:46;1.40;;;1.20;;
19209;SDS011;9738;51.654;14.238;2022-08-03T11:22:13;1.10;;;0.98;;
19209;SDS011;9738;51.654;14.238;2022-08-03T11:29:54;2.08;;;1.60;;
19209;SDS011;9738;51.654;14.238;2022-08-03T11:35:16;1.30;;;1.20;;
19209;SDS011;9738;51.654;14.238;2022-08-03T11:46:03;1.17;;;1.02;;
19209;SDS011;9738;51.654;14.238;2022-08-03T11:50:58;1.35;;;1.25;;
19209;SDS011;9738;51.654;14.238;2022-08-03T11:53:27;1.70;;;1.60;;
19209;SDS011;9738;51.654;14.238;2022-08-03T11:55:57;1.50;;;1.40;;
19209;SDS011;9738;51.654;14.238;2022-08-03T11:58:23;1.23;;;1.13;;
19209;SDS011;9738;51.654;14.238;2022-08-03T12:00:49;1.20;;;1.10;;
19209;SDS011;9738;51.654;14.238;2022-08-03T12:03:17;1.40;;;1.30;;
19209;SDS011;9738;51.654;14.238;2022-08-03T12:05:47;1.10;;;1.00;;
19209;SDS011;9738;51.654;14.238;2022-08-03T12:10:53;1.00;;;1.00;;
19209;SDS011;9738;51.654;14.238;2022-08-03T12:13:21;1.95;;;1.40;;
19209;SDS011;9738;51.654;14.238;2022-08-03T12:15:51;2.13;;;1.33;;
19209;SDS011;9738;51.654;14.238;2022-08-03T12:18:18;1.40;;;1.30;;
19209;SDS011;9738;51.654;14.238;2022-08-03T12:20:47;1.42;;;1.05;;
19209;SDS011;9738;51.654;14.238;2022-08-03T12:23:18;1.35;;;1.15;;
19209;SDS011;9738;51.654;14.238;2022-08-03T12:25:45;1.70;;;1.50;;
19209;SDS011;9738;51.654;14.238;2022-08-03T12:28:14;1.25;;;1.15;;
19209;SDS011;9738;51.654;14.238;2022-08-03T12:30:43;1.60;;;1.30;;
19209;SDS011;9738;51.654;14.238;2022-08-03T12:33:15;2.78;;;1.50;;
19209;SDS011;9738;51.654;14.238;2022-08-03T12:35:45;1.30;;;1.20;;
19209;SDS011;9738;51.654;14.238;2022-08-03T12:38:31;1.40;;;1.23;;
19209;SDS011;9738;51.654;14.238;2022-08-03T12:40:59;1.40;;;1.30;;
19209;SDS011;9738;51.654;14.238;2022-08-03T12:43:27;1.40;;;1.25;;
19209;SDS011;9738;51.654;14.238;2022-08-03T12:46:07;2.00;;;1.20;;
19209;SDS011;9738;51.654;14.238;2022-08-03T12:48:34;1.40;;;1.30;;
19209;SDS011;9738;51.654;14.238;2022-08-03T12:51:08;1.77;;;1.67;;
19209;SDS011;9738;51.654;14.238;2022-08-03T12:53:34;1.70;;;1.30;;
19209;SDS011;9738;51.654;14.238;2022-08-03T12:56:02;1.30;;;1.20;;
19209;SDS011;9738;51.654;14.238;2022-08-03T12:58:30;1.40;;;1.30;;
19209;SDS011;9738;51.654;14.238;2022-08-03T13:00:58;1.50;;;1.40;;
19209;SDS011;9738;51.654;14.238;2022-08-03T13:03:24;1.42;;;1.33;;
19209;SDS011;9738;51.654;14.238;2022-08-03T13:05:50;1.63;;;1.50;;
19209;SDS011;9738;51.654;14.238;2022-08-03T13:08:22;1.08;;;1.08;;
19209;SDS011;9738;51.654;14.238;2022-08-03T13:10:50;1.35;;;1.25;;
19209;SDS011;9738;51.654;14.238;2022-08-03T13:13:16;1.23;;;1.13;;
19209;SDS011;9738;51.654;14.238;2022-08-03T13:15:41;1.92;;;0.95;;
19209;SDS011;9738;51.654;14.238;2022-08-03T13:18:08;1.20;;;1.10;;
19209;SDS011;9738;51.654;14.238;2022-08-03T13:20:34;1.80;;;1.30;;
19209;SDS011;9738;51.654;14.238;2022-08-03T13:23:00;1.48;;;1.38;;
19209;SDS011;9738;51.654;14.238;2022-08-03T13:25:26;1.27;;;1.17;;
19209;SDS011;9738;51.654;14.238;2022-08-03T13:27:52;1.30;;;1.20;;
19209;SDS011;9738;51.654;14.238;2022-08-03T13:30:18;1.60;;;1.50;;
19209;SDS011;9738;51.654;14.238;2022-08-03T13:32:44;1.70;;;1.30;;
19209;SDS011;9738;51.654;14.238;2022-08-03T13:35:10;1.40;;;1.30;;
19209;SDS011;9738;51.654;14.238;2022-08-03T13:37:36;1.88;;;1.77;;
19209;SDS011;9738;51.654;14.238;2022-08-03T13:40:04;1.30;;;1.20;;
19209;SDS011;9738;51.654;14.238;2022-08-03T13:42:32;1.33;;;1.23;;
19209;SDS011;9738;51.654;14.238;2022-08-03T13:45:00;1.58;;;1.08;;
19209;SDS011;9738;51.654;14.238;2022-08-03T13:47:26;1.13;;;1.02;;
19209;SDS011;9738;51.654;14.238;2022-08-03T13:49:52;1.02;;;1.00;;
19209;SDS011;9738;51.654;14.238;2022-08-03T13:52:18;1.42;;;1.33;;
19209;SDS011;9738;51.654;14.238;2022-08-03T13:54:45;1.33;;;1.23;;
19209;SDS011;9738;51.654;14.238;2022-08-03T13:57:11;1.15;;;1.08;;
19209;SDS011;9738;51.654;14.238;2022-08-03T13:59:58;1.55;;;1.20;;
19209;SDS011;9738;51.654;14.238;2022-08-03T14:02:24;1.25;;;1.15;;
19209;SDS011;9738;51.654;14.238;2022-08-03T14:04:50;1.35;;;1.25;;
19209;SDS011;9738;51.654;14.238;2022-08-03T14:07:15;1.40;;;1.30;;
19209;SDS011;9738;51.654;14.238;2022-08-03T14:09:42;1.20;;;1.10;;
19209;SDS011;9738;51.654;14.238;2022-08-03T14:12:07;1.17;;;1.13;;
19209;SDS011;9738;51.654;14.238;2022-08-03T14:14:33;1.50;;;1.40;;
19209;SDS011;9738;51.654;14.238;2022-08-03T14:17:00;1.70;;;1.20;;
19209;SDS011;9738;51.654;14.238;2022-08-03T14:19:25;1.73;;;1.60;;
19209;SDS011;9738;51.654;14.238;2022-08-03T14:21:51;1.55;;;1.45;;
19209;SDS011;9738;51.654;14.238;2022-08-03T14:24:17;1.35;;;1.25;;
19209;SDS011;9738;51.654;14.238;2022-08-03T14:26:43;1.40;;;1.30;;
19209;SDS011;9738;51.654;14.238;2022-08-03T14:29:09;1.25;;;1.15;;
19209;SDS011;9738;51.654;14.238;2022-08-03T14:31:36;1.30;;;1.20;;
19209;SDS011;9738;51.654;14.238;2022-08-03T14:34:02;1.73;;;1.30;;
19209;SDS011;9738;51.654;14.238;2022-08-03T14:36:28;3.00;;;1.35;;
19209;SDS011;9738;51.654;14.238;2022-08-03T14:38:55;1.50;;;1.40;;
19209;SDS011;9738;51.654;14.238;2022-08-03T14:41:42;2.42;;;1.30;;
19209;SDS011;9738;51.654;14.238;2022-08-03T14:44:29;1.42;;;1.33;;
19209;SDS011;9738;51.654;14.238;2022-08-03T14:47:16;1.70;;;1.35;;
19209;SDS011;9738;51.654;14.238;2022-08-03T14:50:04;1.50;;;1.40;;
19209;SDS011;9738;51.654;14.238;2022-08-03T14:52:31;1.20;;;1.10;;
19209;SDS011;9738;51.654;14.238;2022-08-03T14:54:57;1.52;;;1.40;;
19209;SDS011;9738;51.654;14.238;2022-08-03T14:57:24;1.70;;;1.50;;
19209;SDS011;9738;51.654;14.238;2022-08-03T14:59:51;1.10;;;1.00;;
19209;SDS011;9738;51.654;14.238;2022-08-03T15:02:17;1.30;;;1.20;;
19209;SDS011;9738;51.654;14.238;2022-08-03T15:04:43;1.40;;;1.30;;
19209;SDS011;9738;51.654;14.238;2022-08-03T15:07:09;1.60;;;1.50;;
19209;SDS011;9738;51.654;14.238;2022-08-03T15:09:35;1.20;;;1.10;;
19209;SDS011;9738;51.654;14.238;2022-08-03T15:12:02;1.50;;;1.40;;
19209;SDS011;9738;51.654;14.238;2022-08-03T15:14:29;1.40;;;1.30;;
19209;SDS011;9738;51.654;14.238;2022-08-03T15:16:54;1.30;;;1.20;;
19209;SDS011;9738;51.654;14.238;2022-08-03T15:19:20;1.50;;;1.40;;
19209;SDS011;9738;51.654;14.238;2022-08-03T15:21:46;1.60;;;1.50;;
19209;SDS011;9738;51.654;14.238;2022-08-03T15:24:12;1.50;;;1.40;;
19209;SDS011;9738;51.654;14.238;2022-08-03T15:26:38;1.63;;;1.52;;
19209;SDS011;9738;51.654;14.238;2022-08-03T15:29:05;2.67;;;1.20;;
19209;SDS011;9738;51.654;14.238;2022-08-03T15:31:32;1.35;;;1.25;;
19209;SDS011;9738;51.654;14.238;2022-08-03T15:33:58;1.45;;;1.30;;
19209;SDS011;9738;51.654;14.238;2022-08-03T15:36:24;1.52;;;1.08;;
19209;SDS011;9738;51.654;14.238;2022-08-03T15:38:50;1.40;;;1.30;;